createdAt,value
2023-03-06T02:27:37.853Z,9.08
2023-03-06T02:28:37.837Z,9.23
2023-03-06T02:29:37.893Z,8.94
2023-03-06T02:30:37.954Z,8.82
2023-03-06T02:31:37.997Z,8.47
2023-03-06T02:55:38.389Z,8.21
2023-03-06T02:56:38.384Z,8.62
2023-03-06T02:57:38.386Z,7.42
2023-03-06T02:58:38.397Z,8.41
2023-03-06T02:59:38.376Z,8.07
2023-03-06T03:00:39.952Z,8.38
2023-03-06T03:01:38.437Z,8.81
2023-03-06T03:02:38.422Z,7.71
2023-03-06T03:03:38.401Z,8.54
2023-03-06T03:04:38.474Z,8.38
2023-03-06T03:05:38.433Z,8.77
2023-03-06T03:06:38.422Z,7.64
2023-03-06T03:07:38.416Z,8.29
2023-03-06T03:08:38.425Z,7.96
2023-03-06T03:09:38.439Z,8.25
2023-03-06T03:10:38.464Z,8.13
2023-03-06T03:11:38.458Z,7.35
2023-03-06T03:12:38.442Z,8.71
2023-03-06T03:13:38.633Z,8.49
2023-03-06T03:14:38.460Z,8.51
2023-03-06T03:15:38.528Z,7.95
2023-03-06T03:16:39.262Z,7.70
2023-03-06T03:17:38.491Z,7.27
2023-03-06T03:18:38.503Z,8.19
2023-03-06T03:19:38.505Z,8.19
2023-03-06T03:20:38.492Z,8.34
2023-03-06T03:21:38.472Z,8.22
2023-03-06T03:22:38.494Z,8.85
2023-03-06T03:23:38.511Z,8.86
2023-03-06T03:24:38.530Z,9.12
2023-03-06T03:25:38.509Z,9.22
2023-03-06T03:26:38.508Z,7.81
2023-03-06T03:27:38.543Z,8.22
2023-03-06T03:28:38.546Z,8.13
2023-03-06T03:29:38.569Z,8.51
2023-03-06T03:30:38.552Z,8.54
2023-03-06T03:31:38.599Z,8.75
2023-03-06T03:32:38.574Z,8.16
2023-03-06T03:33:38.636Z,7.71
2023-03-06T03:34:38.581Z,8.56
2023-03-06T03:35:38.609Z,8.73
2023-03-06T03:36:38.595Z,7.70
2023-03-06T03:37:38.611Z,7.66
2023-03-06T03:38:38.643Z,8.33
2023-03-06T03:39:38.667Z,7.58
2023-03-06T03:40:38.734Z,8.35
2023-03-06T03:41:38.785Z,8.70
2023-03-06T03:42:38.869Z,8.60
2023-03-06T03:43:38.923Z,8.29
2023-03-06T03:44:38.968Z,7.39
2023-03-06T03:45:39.048Z,8.61
2023-03-06T03:46:39.100Z,8.42
2023-03-06T03:47:39.145Z,8.87
2023-03-06T03:48:39.153Z,8.14
2023-03-06T03:49:39.187Z,8.31
2023-03-06T03:50:39.172Z,7.72
2023-03-06T03:51:39.204Z,8.11
2023-03-06T03:52:39.148Z,7.44
2023-03-06T03:53:39.172Z,8.60
2023-03-06T03:54:39.165Z,8.18
2023-03-06T03:55:39.181Z,8.47
2023-03-06T03:56:39.197Z,8.69
2023-03-06T03:57:39.160Z,8.20
2023-03-06T03:58:39.180Z,7.67
2023-03-06T03:59:39.194Z,7.91
2023-03-06T04:00:39.177Z,8.77
2023-03-06T04:01:39.857Z,8.04
2023-03-06T04:02:39.261Z,8.55
2023-03-06T04:03:39.319Z,8.55
2023-03-06T04:04:39.402Z,8.72
2023-03-06T04:05:39.443Z,7.79
2023-03-06T04:06:39.473Z,8.09
2023-03-06T04:07:39.533Z,8.54
2023-03-06T04:08:39.614Z,8.19
2023-03-06T04:09:39.597Z,9.08
2023-03-06T04:10:39.659Z,8.48
2023-03-06T04:11:39.664Z,8.31
2023-03-06T04:12:39.705Z,8.04
2023-03-06T04:13:39.718Z,8.95
2023-03-06T04:14:39.732Z,8.54
2023-03-06T04:15:39.770Z,7.83
2023-03-06T04:16:39.811Z,8.25
2023-03-06T04:17:39.852Z,8.50
2023-03-06T04:18:39.878Z,8.61
2023-03-06T04:19:39.938Z,8.05
2023-03-06T04:20:39.947Z,7.68
2023-03-06T04:21:39.966Z,8.15
2023-03-06T04:22:40.022Z,9.13
2023-03-06T04:23:40.023Z,8.60
2023-03-06T04:24:40.066Z,8.96
2023-03-06T04:25:40.115Z,9.13
2023-03-06T04:26:40.142Z,9.05
2023-03-06T04:27:40.202Z,8.62
2023-03-06T04:28:40.198Z,8.26
2023-03-06T04:29:40.239Z,8.32
2023-03-06T04:30:40.277Z,8.77
2023-03-06T04:31:40.328Z,8.94
2023-03-06T04:32:40.418Z,8.49
2023-03-06T04:33:40.372Z,8.72
2023-03-06T04:34:40.380Z,9.23
2023-03-06T04:35:40.544Z,9.20
2023-03-06T04:36:40.477Z,8.38
2023-03-06T04:37:40.539Z,8.46
2023-03-06T04:38:40.631Z,8.44
2023-03-06T04:39:40.619Z,9.27
2023-03-06T04:40:40.617Z,8.50
2023-03-06T04:41:40.662Z,9.15
2023-03-06T04:42:40.695Z,9.13
2023-03-06T04:43:40.797Z,8.89
2023-03-06T04:44:40.801Z,8.97
2023-03-06T04:45:40.855Z,8.84
2023-03-06T04:46:40.867Z,8.45
2023-03-06T04:47:40.869Z,8.54
2023-03-06T04:48:40.902Z,8.37
2023-03-06T04:49:40.886Z,8.88
2023-03-06T04:50:40.874Z,8.65
2023-03-06T04:51:40.953Z,9.21
2023-03-06T04:52:40.960Z,8.93
2023-03-06T04:53:40.965Z,8.82
2023-03-06T04:54:40.977Z,9.04
2023-03-06T04:55:40.966Z,9.29
2023-03-06T04:56:40.998Z,8.70
2023-03-06T04:57:40.971Z,9.18
2023-03-06T04:58:40.980Z,9.13
2023-03-06T04:59:40.997Z,8.86
2023-03-06T05:00:41.020Z,9.83
2023-03-06T05:01:41.019Z,9.54
2023-03-06T05:02:40.984Z,9.49
2023-03-06T05:03:40.993Z,9.40
2023-03-06T05:04:40.973Z,8.96
2023-03-06T05:05:41.003Z,8.50
2023-03-06T05:06:41.000Z,8.44
2023-03-06T05:07:40.974Z,9.13
2023-03-06T05:08:41.008Z,9.53
2023-03-06T05:09:40.999Z,8.89
2023-03-06T05:10:41.004Z,8.82
2023-03-06T05:11:41.003Z,9.03
2023-03-06T05:12:40.993Z,8.41
2023-03-06T05:13:41.036Z,8.50
2023-03-06T05:14:41.029Z,9.46
2023-03-06T05:15:41.008Z,9.83
2023-03-06T05:16:41.083Z,8.45
2023-03-06T05:17:41.024Z,9.62
2023-03-06T05:18:41.060Z,10.06
2023-03-06T05:19:41.070Z,9.33
2023-03-06T05:20:41.076Z,8.79
2023-03-06T05:21:41.024Z,9.79
2023-03-06T05:22:41.061Z,10.00
2023-03-06T05:23:41.056Z,9.06
2023-03-06T05:24:41.073Z,9.87
2023-03-06T05:25:41.089Z,8.38
2023-03-06T05:26:41.068Z,9.65
2023-03-06T05:27:41.069Z,9.86
2023-03-06T05:28:41.082Z,10.07
2023-03-06T05:29:41.088Z,9.54
2023-03-06T05:30:41.098Z,9.98
2023-03-06T05:31:41.195Z,9.16
2023-03-06T05:32:41.251Z,9.51
2023-03-06T05:33:41.273Z,9.34
2023-03-06T05:34:41.342Z,8.88
2023-03-06T05:35:41.449Z,9.72
2023-03-06T05:36:41.453Z,8.98
2023-03-06T05:37:41.492Z,9.96
2023-03-06T05:38:41.505Z,9.08
2023-03-06T05:39:41.508Z,10.05
2023-03-06T05:40:41.529Z,9.54
2023-03-06T05:41:41.507Z,9.30
2023-03-06T05:42:41.514Z,9.86
2023-03-06T05:43:41.515Z,10.13
2023-03-06T05:44:41.556Z,10.24
2023-03-06T05:45:41.594Z,10.22
2023-03-06T05:46:41.527Z,10.09
2023-03-06T05:47:41.526Z,10.43
2023-03-06T05:48:41.528Z,9.87
2023-03-06T05:49:41.545Z,9.66
2023-03-06T05:50:41.515Z,10.18
2023-03-06T05:51:41.508Z,9.71
2023-03-06T05:52:41.536Z,8.56
2023-03-06T05:53:41.517Z,10.09
2023-03-06T05:54:41.556Z,10.28
2023-03-06T05:55:41.555Z,9.89
2023-03-06T05:56:42.909Z,10.29
2023-03-06T05:57:41.585Z,10.74
2023-03-06T05:58:41.657Z,9.44
2023-03-06T05:59:42.690Z,10.11
2023-03-06T06:00:41.786Z,10.01
2023-03-06T06:01:48.816Z,10.20
2023-03-06T06:02:41.870Z,10.92
2023-03-06T06:03:41.823Z,10.05
2023-03-06T06:04:41.812Z,11.24
2023-03-06T06:05:41.770Z,10.35
2023-03-06T06:06:41.784Z,9.88
2023-03-06T06:07:41.790Z,9.82
2023-03-06T06:08:41.829Z,10.71
2023-03-06T06:09:41.854Z,10.20
2023-03-06T06:10:41.755Z,10.48
2023-03-06T06:11:41.747Z,9.76
2023-03-06T06:12:41.804Z,10.30
2023-03-06T06:13:41.780Z,11.07
2023-03-06T06:14:41.748Z,10.38
2023-03-06T06:15:41.791Z,9.70
2023-03-06T06:16:41.711Z,10.53
2023-03-06T06:17:41.715Z,9.87
2023-03-06T06:18:41.700Z,9.52
2023-03-06T06:19:41.688Z,10.24
2023-03-06T06:20:41.726Z,9.35
2023-03-06T06:21:41.680Z,9.93
2023-03-06T06:22:41.695Z,10.42
2023-03-06T06:23:41.661Z,11.67
2023-03-06T06:24:41.649Z,10.91
2023-03-06T06:25:41.624Z,9.93
2023-03-06T06:26:41.665Z,10.89
2023-03-06T06:27:41.652Z,9.19
2023-03-06T06:28:41.617Z,10.38
2023-03-06T06:29:41.623Z,10.85
2023-03-06T06:30:42.037Z,10.51
2023-03-06T06:31:41.640Z,9.83
2023-03-06T06:32:41.696Z,10.07
2023-03-06T06:33:41.655Z,11.42
2023-03-06T06:35:41.614Z,10.59
2023-03-06T06:36:41.812Z,10.61
2023-03-06T06:37:41.584Z,10.86
2023-03-06T06:38:41.548Z,10.45
2023-03-06T06:39:41.571Z,11.98
2023-03-06T06:40:41.560Z,12.05
2023-03-06T06:42:02.257Z,11.33
2023-03-06T06:42:42.543Z,11.54
2023-03-06T06:43:41.536Z,11.34
2023-03-06T06:44:41.512Z,12.48
2023-03-06T06:45:41.527Z,14.59
2023-03-06T06:47:42.532Z,11.85
2023-03-06T06:48:41.679Z,12.20
2023-03-06T06:49:41.533Z,11.61
2023-03-06T06:50:41.576Z,12.19
2023-03-06T06:51:41.511Z,12.63
2023-03-06T06:52:41.474Z,11.34
2023-03-06T06:53:41.496Z,11.37
2023-03-06T06:54:41.477Z,10.42
2023-03-06T06:55:41.477Z,9.82
2023-03-06T06:56:41.451Z,10.18
2023-03-06T06:57:41.436Z,9.46
2023-03-06T06:58:41.426Z,9.37
2023-03-06T06:59:41.489Z,9.25
2023-03-06T07:00:41.417Z,9.06
2023-03-06T07:01:41.446Z,8.68
2023-03-06T07:02:41.423Z,9.68
2023-03-06T07:03:41.443Z,8.73
2023-03-06T07:04:56.193Z,8.62
2023-03-06T07:05:42.400Z,8.40
2023-03-06T07:06:41.401Z,8.39
2023-03-06T07:07:41.375Z,8.14
2023-03-06T07:08:41.366Z,7.90
2023-03-06T07:09:41.476Z,7.90
2023-03-06T07:10:41.382Z,7.92
2023-03-06T07:11:41.855Z,7.72
2023-03-06T07:12:41.361Z,7.33
2023-03-06T07:13:41.322Z,7.08
2023-03-06T07:14:41.374Z,7.30
2023-03-06T07:15:41.374Z,7.64
2023-03-06T07:16:41.324Z,7.34
2023-03-06T07:17:41.322Z,8.01
2023-03-06T07:18:41.292Z,6.99
2023-03-06T07:19:41.359Z,6.79
2023-03-06T07:20:41.304Z,6.29
2023-03-06T07:21:41.390Z,6.81
2023-03-06T07:22:50.845Z,6.69
2023-03-06T07:23:42.347Z,5.73
2023-03-06T07:24:41.365Z,6.78
2023-03-06T07:25:41.321Z,6.52
2023-03-06T07:26:41.336Z,6.41
2023-03-06T07:27:41.361Z,6.96
2023-03-06T07:28:51.956Z,6.38
2023-03-06T07:29:42.292Z,5.59
2023-03-06T07:30:41.301Z,5.75
2023-03-06T07:31:41.362Z,5.96
2023-03-06T07:32:41.328Z,6.38
2023-03-06T07:33:41.284Z,5.43
2023-03-06T07:34:41.286Z,5.72
2023-03-06T07:35:41.345Z,5.95
2023-03-06T07:36:41.355Z,6.02
2023-03-06T07:37:41.309Z,6.80
2023-03-06T07:38:41.299Z,9.29
2023-03-06T07:39:41.280Z,7.94
2023-03-06T07:40:41.321Z,7.21
2023-03-06T07:41:41.868Z,7.57
2023-03-06T07:42:41.254Z,6.98
2023-03-06T07:43:41.313Z,8.08
2023-03-06T07:44:41.233Z,7.43
2023-03-06T07:45:41.211Z,7.13
2023-03-06T07:46:41.534Z,7.21
2023-03-06T07:47:41.309Z,6.64
2023-03-06T07:48:41.374Z,6.61
2023-03-06T07:49:41.485Z,6.55
2023-03-06T07:50:41.463Z,5.92
2023-03-06T07:53:41.579Z,6.31
2023-03-06T07:54:41.631Z,6.17
2023-03-06T07:55:42.044Z,6.32
2023-03-06T07:56:41.945Z,6.86
2023-03-06T07:58:41.718Z,7.44
2023-03-06T07:59:41.808Z,7.92
2023-03-06T08:00:41.839Z,7.39
2023-03-06T08:01:41.908Z,8.35
2023-03-06T08:02:41.941Z,8.16
2023-03-06T08:03:41.832Z,8.32
2023-03-06T08:04:41.862Z,8.54
2023-03-06T08:05:41.860Z,8.87
2023-03-06T08:06:41.875Z,8.21
2023-03-06T08:36:42.613Z,18.03
2023-03-06T09:41:44.947Z,14.60
2023-03-06T11:18:49.017Z,7.20
2023-03-06T11:38:48.788Z,6.10
2023-03-06T11:39:48.962Z,7.03
2023-03-06T11:40:48.799Z,7.03
2023-03-06T11:41:48.797Z,6.25
2023-03-06T11:42:48.825Z,7.60
2023-03-06T11:43:48.838Z,7.78
2023-03-06T11:44:48.970Z,7.60
2023-03-06T11:45:48.989Z,7.53
2023-03-06T11:46:48.998Z,6.35
2023-03-06T11:47:49.040Z,7.53
2023-03-06T11:48:49.055Z,6.76
2023-03-06T11:49:49.455Z,6.51
2023-03-06T11:50:49.120Z,7.10
2023-03-06T11:51:49.170Z,6.49
2023-03-06T11:52:49.248Z,7.08
2023-03-06T11:53:49.256Z,7.01
2023-03-06T11:54:49.483Z,7.16
2023-03-06T11:55:49.369Z,6.87
2023-03-06T11:56:49.372Z,6.39
2023-03-06T11:57:49.421Z,6.53
2023-03-06T11:58:49.486Z,6.09
2023-03-06T11:59:49.549Z,5.65
2023-03-06T12:00:49.602Z,6.52
2023-03-06T12:01:49.670Z,6.91
2023-03-06T12:02:49.717Z,6.17
2023-03-06T12:03:49.781Z,5.30
2023-03-06T12:04:49.998Z,5.67
2023-03-06T12:05:49.996Z,4.91
2023-03-06T12:06:49.973Z,5.10
2023-03-06T12:07:50.078Z,5.27
2023-03-06T12:08:50.075Z,6.48
2023-03-06T12:09:50.111Z,7.34
2023-03-06T12:10:51.866Z,5.94
2023-03-06T12:11:50.317Z,5.17
2023-03-06T12:12:50.650Z,6.28
2023-03-06T12:14:50.477Z,6.28
2023-03-06T12:15:50.533Z,6.59
2023-03-06T12:16:50.529Z,5.93
2023-03-06T12:17:50.561Z,8.75
2023-03-06T12:18:50.557Z,6.07
2023-03-06T12:19:50.991Z,5.42
2023-03-06T12:20:50.971Z,5.83
2023-03-06T12:21:50.671Z,5.12
2023-03-06T12:22:57.616Z,5.08
2023-03-06T12:23:51.769Z,5.56
2023-03-06T12:24:50.732Z,5.64
2023-03-06T12:25:51.011Z,5.48
2023-03-06T12:26:50.715Z,5.38
2023-03-06T12:27:50.709Z,4.57
2023-03-06T12:28:50.720Z,5.71
2023-03-06T12:29:50.792Z,4.94
2023-03-06T12:30:51.053Z,5.82
2023-03-06T12:31:50.764Z,6.36
2023-03-06T12:32:50.729Z,5.49
2023-03-06T12:33:50.696Z,6.12
2023-03-06T12:34:50.674Z,6.02
2023-03-06T12:35:51.020Z,6.96
2023-03-06T12:36:50.672Z,6.08
2023-03-06T12:37:50.804Z,6.58
2023-03-06T12:38:50.637Z,7.35
2023-03-06T12:39:50.634Z,6.77
2023-03-06T12:40:50.642Z,6.36
2023-03-06T12:41:50.656Z,6.89
2023-03-06T12:42:50.662Z,6.67
2023-03-06T12:43:50.682Z,6.37
2023-03-06T12:44:50.743Z,6.50
2023-03-06T12:45:50.791Z,6.08
2023-03-06T12:46:50.749Z,5.93
2023-03-06T12:47:50.790Z,6.18
2023-03-06T12:48:50.814Z,6.07
2023-03-06T12:49:50.839Z,6.67
2023-03-06T12:50:50.879Z,5.96
2023-03-06T12:51:50.899Z,6.01
2023-03-06T12:52:50.907Z,6.09
2023-03-06T12:53:50.919Z,5.94
2023-03-06T12:54:50.953Z,6.10
2023-03-06T12:55:50.957Z,5.51
2023-03-06T12:56:50.970Z,5.73
2023-03-06T12:57:50.984Z,5.56
2023-03-06T12:58:51.052Z,6.20
2023-03-06T12:59:51.034Z,6.28
2023-03-06T13:00:55.281Z,4.84
2023-03-06T13:01:52.134Z,5.88
2023-03-06T13:02:51.094Z,5.69
2023-03-06T13:03:51.013Z,5.95
2023-03-06T13:04:51.046Z,5.47
2023-03-06T13:05:51.087Z,5.48
2023-03-06T13:06:51.616Z,5.98
2023-03-06T13:07:51.113Z,5.60
2023-03-06T13:08:51.137Z,5.74
2023-03-06T13:09:51.148Z,5.62
2023-03-06T13:10:51.167Z,5.69
2023-03-06T13:11:51.170Z,5.38
2023-03-06T13:12:51.271Z,7.14
2023-03-06T13:13:51.236Z,5.83
2023-03-06T13:14:54.565Z,6.12
2023-03-06T13:15:51.261Z,6.51
2023-03-06T13:16:51.264Z,7.12
2023-03-06T13:17:51.272Z,6.39
2023-03-06T13:18:51.237Z,5.58
2023-03-06T13:19:51.272Z,7.09
2023-03-06T13:20:51.227Z,5.99
2023-03-06T13:21:51.234Z,5.94
2023-03-06T13:22:51.238Z,5.91
2023-03-06T13:23:51.245Z,5.70
2023-03-06T13:24:54.926Z,6.11
2023-03-06T13:25:51.244Z,5.80
2023-03-06T13:26:51.218Z,5.59
2023-03-06T13:27:51.197Z,6.12
2023-03-06T13:28:51.168Z,6.19
2023-03-06T13:29:51.173Z,6.16
2023-03-06T13:30:53.021Z,6.04
2023-03-06T15:48:18.837Z,5.96
2023-03-06T15:50:18.799Z,6.25
2023-03-06T15:51:18.840Z,6.65
2023-03-06T15:52:18.823Z,6.29
2023-03-06T15:53:18.812Z,6.16
2023-03-06T15:54:18.841Z,6.17
2023-03-06T15:55:18.875Z,6.19
2023-03-06T15:56:19.003Z,6.17
2023-03-06T15:57:19.107Z,6.40
2023-03-06T15:58:19.197Z,5.34
2023-03-06T15:59:19.234Z,5.46
2023-03-06T16:00:27.390Z,5.61
2023-03-06T16:01:20.370Z,5.43
2023-03-06T16:02:19.337Z,5.12
2023-03-06T16:03:19.314Z,5.65
2023-03-06T16:04:19.377Z,4.96
2023-03-06T16:05:19.329Z,5.34
2023-03-06T16:06:19.313Z,5.30
2023-03-06T16:07:19.339Z,5.63
2023-03-06T16:08:19.304Z,5.55
2023-03-06T16:09:19.290Z,5.17
2023-03-06T16:10:19.322Z,5.43
2023-03-06T16:11:19.265Z,5.55
2023-03-06T16:12:19.336Z,5.41
2023-03-06T16:13:19.385Z,6.11
2023-03-06T16:14:19.421Z,5.99
2023-03-06T16:15:19.450Z,7.70
2023-03-06T16:16:19.538Z,11.62
2023-03-06T16:17:19.469Z,13.37
2023-03-06T16:18:19.519Z,15.62
2023-03-06T16:19:25.969Z,16.96
2023-03-06T16:20:20.563Z,17.08
2023-03-06T16:21:19.548Z,18.04
2023-03-06T16:22:19.530Z,17.39
2023-03-06T16:23:19.556Z,18.89
2023-03-06T16:24:19.516Z,19.12
2023-03-06T16:25:19.523Z,18.31
2023-03-06T16:26:19.508Z,18.61
2023-03-06T16:27:19.552Z,18.43
2023-03-06T16:28:19.523Z,18.67
2023-03-06T16:29:19.528Z,19.62
2023-03-06T16:30:19.498Z,19.94
2023-03-06T16:31:19.475Z,19.20
2023-03-06T16:32:19.585Z,20.80
2023-03-06T16:33:19.542Z,20.66
2023-03-06T16:34:19.761Z,20.60
2023-03-06T16:35:19.678Z,20.24
2023-03-06T16:36:19.642Z,20.26
2023-03-06T16:37:19.638Z,20.30
2023-03-06T16:38:19.663Z,20.71
2023-03-06T16:39:19.652Z,19.58
2023-03-06T16:40:19.710Z,19.31
2023-03-06T16:41:19.716Z,19.51
2023-03-06T16:42:19.749Z,16.76
2023-03-06T16:43:19.788Z,15.66
2023-03-06T16:44:19.847Z,16.87
2023-03-06T16:45:19.832Z,14.69
2023-03-06T16:46:19.898Z,14.98
2023-03-06T16:47:19.912Z,14.55
2023-03-06T16:48:19.999Z,13.50
2023-03-06T16:49:20.022Z,12.65
2023-03-06T16:50:19.976Z,12.58
2023-03-06T16:51:19.999Z,11.81
2023-03-06T16:52:20.044Z,11.40
2023-03-06T16:53:20.115Z,10.41
2023-03-06T16:54:20.184Z,10.95
2023-03-06T16:55:20.173Z,11.30
2023-03-06T16:56:20.205Z,11.23
2023-03-06T16:57:20.251Z,9.53
2023-03-06T16:58:20.285Z,9.67
2023-03-06T16:59:20.277Z,8.77
2023-03-06T17:00:20.313Z,11.13
2023-03-06T17:01:20.356Z,10.04
2023-03-06T17:02:20.377Z,10.02
2023-03-06T17:03:20.367Z,11.07
2023-03-06T17:04:20.378Z,11.40
2023-03-06T17:05:20.388Z,11.37
2023-03-06T17:06:20.409Z,11.23
2023-03-06T17:07:20.439Z,11.05
2023-03-06T17:08:20.489Z,10.96
2023-03-06T17:09:20.496Z,10.19
2023-03-06T17:10:20.519Z,10.41
2023-03-06T17:11:20.560Z,10.66
2023-03-06T17:12:20.544Z,9.55
2023-03-06T17:13:20.599Z,10.07
2023-03-06T17:14:20.625Z,9.95
2023-03-06T17:15:20.610Z,9.57
2023-03-06T17:16:20.757Z,10.31
2023-03-06T17:17:20.709Z,10.39
2023-03-06T17:18:20.690Z,9.43
2023-03-06T17:19:20.717Z,11.04
2023-03-06T17:20:20.750Z,10.55
2023-03-06T17:21:20.818Z,10.02
2023-03-06T17:22:20.813Z,11.12
2023-03-06T17:23:20.874Z,9.72
2023-03-06T17:24:20.893Z,10.07
2023-03-06T17:25:20.922Z,10.01
2023-03-06T17:26:20.926Z,10.30
2023-03-06T17:27:20.959Z,9.57
2023-03-06T17:28:20.979Z,9.77
2023-03-06T17:29:21.031Z,9.28
2023-03-06T17:30:21.065Z,9.65
2023-03-06T17:31:21.115Z,9.60
2023-03-06T17:32:21.148Z,9.61
2023-03-06T17:33:21.735Z,9.79
2023-03-06T17:34:23.082Z,10.77
2023-03-06T17:35:21.172Z,9.47
2023-03-06T17:36:21.169Z,9.65
2023-03-06T17:37:21.200Z,8.91
2023-03-06T17:38:21.129Z,9.84
2023-03-06T17:39:21.111Z,9.76
2023-03-06T17:40:21.123Z,9.83
2023-03-06T17:41:21.146Z,9.37
2023-03-06T17:42:21.115Z,10.11
2023-03-06T17:43:21.106Z,9.56
2023-03-06T17:44:21.099Z,10.23
2023-03-06T17:45:21.077Z,10.33
2023-03-06T17:46:21.120Z,10.08
2023-03-06T17:47:21.078Z,9.84
2023-03-06T17:48:21.093Z,9.62
2023-03-06T17:49:21.068Z,10.36
2023-03-06T17:50:21.058Z,9.35
2023-03-06T17:51:21.055Z,9.38
2023-03-06T17:52:21.025Z,9.63
2023-03-06T17:53:21.031Z,9.95
2023-03-06T17:54:21.083Z,8.97
2023-03-06T17:55:21.047Z,9.27
2023-03-06T17:56:21.039Z,9.55
2023-03-06T17:57:21.029Z,9.80
2023-03-06T17:58:21.023Z,10.39
2023-03-06T17:59:20.995Z,9.26
2023-03-06T18:00:20.971Z,9.44
2023-03-06T18:01:20.994Z,9.65
2023-03-06T18:02:20.992Z,9.97
2023-03-06T18:03:21.107Z,9.57
2023-03-06T18:04:20.964Z,10.09
2023-03-06T18:05:20.971Z,10.39
2023-03-06T18:06:20.994Z,9.50
2023-03-06T18:07:20.967Z,9.55
2023-03-06T18:08:20.942Z,9.25
2023-03-06T18:09:20.930Z,9.81
2023-03-06T18:10:20.936Z,9.20
2023-03-06T18:11:20.922Z,10.18
2023-03-06T18:12:21.073Z,8.89
2023-03-06T18:13:20.898Z,10.27
2023-03-06T18:14:20.906Z,9.59
2023-03-06T18:15:20.900Z,9.50
2023-03-06T18:16:21.019Z,9.72
2023-03-06T18:17:20.885Z,9.05
2023-03-06T18:18:20.886Z,9.53
2023-03-06T18:19:20.880Z,9.94
2023-03-06T18:20:20.878Z,9.79
2023-03-06T18:21:20.885Z,9.85
2023-03-06T18:22:20.836Z,9.39
2023-03-06T18:23:20.843Z,9.77
2023-03-06T18:24:20.850Z,8.95
2023-03-06T18:25:20.837Z,9.01
2023-03-06T18:26:20.839Z,9.67
2023-03-06T18:27:20.837Z,8.87
2023-03-06T18:28:20.819Z,9.44
2023-03-06T18:29:20.816Z,9.55
2023-03-06T18:30:20.830Z,9.80
2023-03-06T18:31:20.926Z,9.62
2023-03-06T18:32:20.962Z,8.47
2023-03-06T18:33:20.973Z,9.44
2023-03-06T18:34:21.011Z,8.74
2023-03-06T18:35:21.103Z,9.63
2023-03-06T18:36:21.117Z,9.63
2023-03-06T18:37:21.124Z,10.39
2023-03-06T18:38:21.190Z,9.96
2023-03-06T18:39:21.229Z,9.56
2023-03-06T18:40:22.908Z,8.56
2023-03-06T18:41:21.265Z,9.46
2023-03-06T18:42:21.227Z,10.24
2023-03-06T18:43:21.216Z,9.58
2023-03-06T18:44:21.221Z,10.18
2023-03-06T18:45:21.235Z,9.82
2023-03-06T18:46:21.197Z,9.75
2023-03-06T18:47:21.177Z,9.21
2023-03-06T18:48:21.166Z,9.34
2023-03-06T18:49:21.245Z,8.76
2023-03-06T18:50:21.174Z,9.53
2023-03-06T18:51:21.189Z,8.93
2023-03-06T18:52:21.176Z,8.80
2023-03-06T18:53:21.175Z,9.26
2023-03-06T18:54:21.190Z,9.15
2023-03-06T18:55:21.366Z,8.86
2023-03-06T18:56:21.179Z,8.95
2023-03-06T18:57:21.131Z,9.18
2023-03-06T18:58:21.110Z,9.52
2023-03-06T18:59:21.123Z,9.45
2023-03-06T19:00:21.124Z,9.39
2023-03-06T19:01:21.172Z,9.22
2023-03-06T19:02:21.110Z,8.95
2023-03-06T19:03:21.084Z,8.57
2023-03-06T19:04:21.111Z,9.25
2023-03-06T19:05:21.092Z,9.68
2023-03-06T19:06:21.084Z,9.17
2023-03-06T19:07:21.072Z,9.82
2023-03-06T19:08:21.072Z,9.74
2023-03-06T19:09:21.053Z,9.63
2023-03-06T19:10:21.068Z,9.22
2023-03-06T19:11:21.085Z,9.18
2023-03-06T19:12:21.065Z,8.65
2023-03-06T19:13:21.040Z,9.72
2023-03-06T19:14:21.023Z,9.56
2023-03-06T19:15:21.020Z,9.63
2023-03-06T19:16:21.042Z,9.67
2023-03-06T19:17:21.024Z,9.69
2023-03-06T19:18:21.030Z,8.74
2023-03-06T19:19:21.001Z,9.91
2023-03-06T19:20:20.994Z,9.45
2023-03-06T19:21:21.018Z,9.18
2023-03-06T19:22:20.992Z,8.92
2023-03-06T19:23:20.990Z,9.52
2023-03-06T19:24:20.984Z,9.66
2023-03-06T19:25:21.051Z,9.00
2023-03-06T19:26:21.153Z,9.94
2023-03-06T19:27:21.145Z,9.31
2023-03-06T19:28:21.197Z,8.56
2023-03-06T19:29:21.258Z,10.29
2023-03-06T19:30:21.297Z,8.67
2023-03-06T19:31:21.380Z,8.51
2023-03-06T19:32:21.405Z,8.94
2023-03-06T19:33:21.385Z,9.06
2023-03-06T19:34:21.419Z,9.37
2023-03-06T19:35:21.441Z,9.77
2023-03-06T19:36:21.470Z,8.71
2023-03-06T19:37:21.477Z,8.78
2023-03-06T19:38:21.488Z,9.15
2023-03-06T19:39:21.544Z,8.56
2023-03-06T19:40:21.545Z,8.96
2023-03-06T19:41:21.559Z,8.48
2023-03-06T19:42:21.586Z,9.08
2023-03-06T19:43:21.611Z,8.91
2023-03-06T19:44:21.601Z,9.58
2023-03-06T19:45:21.638Z,9.01
2023-03-06T19:46:21.732Z,9.21
2023-03-06T19:47:21.699Z,8.73
2023-03-06T19:48:22.804Z,9.16
2023-03-06T19:49:21.772Z,8.41
2023-03-06T19:50:21.851Z,9.24
2023-03-06T19:51:21.906Z,9.45
2023-03-06T19:52:21.916Z,9.38
2023-03-06T21:59:28.835Z,9.24
2023-03-06T22:00:28.840Z,9.96
2023-03-06T22:01:29.088Z,9.32
